createdAt,value
2023-01-19T00:00:17.247Z,987.79
2023-01-19T00:01:17.167Z,987.75
2023-01-19T00:02:17.170Z,987.79
2023-01-19T00:03:17.176Z,987.77
2023-01-19T00:04:17.146Z,987.78
2023-01-19T00:05:17.189Z,987.81
2023-01-19T00:06:17.153Z,987.79
2023-01-19T00:07:17.107Z,987.77
2023-01-19T00:08:17.125Z,987.78
2023-01-19T00:09:17.120Z,987.76
2023-01-19T00:10:17.121Z,987.77
2023-01-19T00:11:17.075Z,987.78
2023-01-19T00:12:17.069Z,987.78
2023-01-19T00:13:17.066Z,987.73
2023-01-19T00:14:17.061Z,987.74
2023-01-19T00:15:17.046Z,987.68
2023-01-19T00:16:17.109Z,987.71
2023-01-19T00:17:17.045Z,987.70
2023-01-19T00:18:17.012Z,987.72
2023-01-19T00:19:17.001Z,987.74
2023-01-19T00:20:17.009Z,987.76
2023-01-19T00:21:16.975Z,987.76
2023-01-19T00:22:16.984Z,987.82
2023-01-19T00:23:16.975Z,987.77
2023-01-19T00:24:16.960Z,987.76
2023-01-19T00:25:16.950Z,987.77
2023-01-19T00:26:16.934Z,987.76
2023-01-19T00:27:16.916Z,987.81
2023-01-19T00:28:16.911Z,987.86
2023-01-19T00:29:16.900Z,987.85
2023-01-19T00:30:16.907Z,987.88
2023-01-19T00:31:16.932Z,987.73
2023-01-19T00:32:16.881Z,987.81
2023-01-19T00:33:16.859Z,987.92
2023-01-19T00:34:16.869Z,987.94
2023-01-19T00:35:16.828Z,987.97
2023-01-19T00:36:16.834Z,987.95
2023-01-19T00:37:16.847Z,987.96
2023-01-19T00:38:16.807Z,987.97
2023-01-19T00:39:16.793Z,988.01
2023-01-19T00:40:16.795Z,987.99
2023-01-19T00:41:16.802Z,987.98
2023-01-19T00:42:16.788Z,988.01
2023-01-19T00:43:16.772Z,988.03
2023-01-19T00:44:16.757Z,988.03
2023-01-19T00:45:16.798Z,988.00
2023-01-19T00:46:16.728Z,987.97
2023-01-19T00:47:16.737Z,987.96
2023-01-19T00:48:16.813Z,987.94
2023-01-19T00:49:16.709Z,987.97
2023-01-19T00:50:16.721Z,988.02
2023-01-19T00:51:16.670Z,988.01
2023-01-19T00:52:16.700Z,988.00
2023-01-19T00:53:16.656Z,988.02
2023-01-19T00:54:16.693Z,988.03
2023-01-19T00:55:16.632Z,988.01
2023-01-19T00:56:16.633Z,988.01
2023-01-19T00:57:16.631Z,987.99
2023-01-19T00:58:16.633Z,988.00
2023-01-19T00:59:16.590Z,987.97
2023-01-19T01:00:16.631Z,987.97
2023-01-19T01:01:16.697Z,988.03
2023-01-19T01:02:16.827Z,987.98
2023-01-19T01:03:16.602Z,987.96
2023-01-19T01:04:16.550Z,988.00
2023-01-19T01:05:16.543Z,987.97
2023-01-19T01:06:16.545Z,988.03
2023-01-19T01:07:16.523Z,987.97
2023-01-19T01:08:16.514Z,988.02
2023-01-19T01:09:16.535Z,987.99
2023-01-19T01:10:16.508Z,988.00
2023-01-19T01:11:16.484Z,988.02
2023-01-19T01:12:16.472Z,987.98
2023-01-19T01:13:21.979Z,987.98
2023-01-19T01:14:16.466Z,987.96
2023-01-19T01:15:16.436Z,987.97
2023-01-19T01:16:16.518Z,987.99
2023-01-19T01:17:16.413Z,987.90
2023-01-19T01:18:16.417Z,987.94
2023-01-19T01:19:16.393Z,987.97
2023-01-19T01:20:16.416Z,987.98
2023-01-19T01:21:16.378Z,987.98
2023-01-19T01:22:16.376Z,987.99
2023-01-19T01:23:16.362Z,987.99
2023-01-19T01:24:16.366Z,987.99
2023-01-19T01:25:16.348Z,988.02
2023-01-19T01:26:16.350Z,988.05
2023-01-19T01:27:16.312Z,988.05
2023-01-19T01:28:16.325Z,988.00
2023-01-19T01:29:16.310Z,987.98
2023-01-19T01:30:16.289Z,987.97
2023-01-19T01:31:16.296Z,988.02
2023-01-19T01:32:16.279Z,988.04
2023-01-19T01:33:16.246Z,988.03
2023-01-19T01:34:16.257Z,987.95
2023-01-19T01:35:16.247Z,987.97
2023-01-19T01:36:16.256Z,988.01
2023-01-19T01:37:16.246Z,988.07
2023-01-19T01:38:16.215Z,988.02
2023-01-19T01:39:16.194Z,988.05
2023-01-19T01:40:16.186Z,988.05
2023-01-19T01:41:16.181Z,988.02
2023-01-19T01:42:16.168Z,988.03
2023-01-19T01:43:16.146Z,987.99
2023-01-19T01:44:16.191Z,987.94
2023-01-19T01:45:16.137Z,987.96
2023-01-19T01:46:16.279Z,987.94
2023-01-19T01:47:16.113Z,987.97
2023-01-19T01:48:16.119Z,987.99
2023-01-19T01:49:16.086Z,987.93
2023-01-19T01:50:16.103Z,987.96
2023-01-19T01:51:16.130Z,987.93
2023-01-19T01:52:16.067Z,987.90
2023-01-19T01:53:16.060Z,987.89
2023-01-19T01:54:16.036Z,987.92
2023-01-19T01:55:16.043Z,987.93
2023-01-19T01:56:16.041Z,987.95
2023-01-19T01:57:16.024Z,987.90
2023-01-19T01:58:16.012Z,987.91
2023-01-19T01:59:15.989Z,987.98
2023-01-19T02:00:15.994Z,987.93
2023-01-19T02:01:16.045Z,987.92
2023-01-19T02:02:15.987Z,987.91
2023-01-19T02:03:16.008Z,987.87
2023-01-19T02:04:15.954Z,987.93
2023-01-19T02:05:15.934Z,987.94
2023-01-19T02:06:15.961Z,987.86
2023-01-19T02:07:15.918Z,987.92
2023-01-19T02:08:15.916Z,987.90
2023-01-19T02:09:15.893Z,987.91
2023-01-19T02:10:15.887Z,987.88
2023-01-19T02:11:15.871Z,987.85
2023-01-19T02:12:15.892Z,987.87
2023-01-19T02:13:15.867Z,987.81
2023-01-19T02:14:15.854Z,987.85
2023-01-19T02:15:15.832Z,987.93
2023-01-19T02:16:15.862Z,987.86
2023-01-19T02:17:15.833Z,987.80
2023-01-19T02:18:15.836Z,987.89
2023-01-19T02:19:15.792Z,987.91
2023-01-19T02:20:15.818Z,987.94
2023-01-19T02:21:15.788Z,987.87
2023-01-19T02:22:15.805Z,987.90
2023-01-19T02:23:15.753Z,987.89
2023-01-19T02:24:15.777Z,987.84
2023-01-19T02:25:15.776Z,987.91
2023-01-19T02:26:15.729Z,987.94
2023-01-19T02:27:15.704Z,987.88
2023-01-19T02:28:15.720Z,987.90
2023-01-19T02:29:15.689Z,987.90
2023-01-19T02:30:15.700Z,987.95
2023-01-19T02:31:15.674Z,987.87
2023-01-19T02:32:15.668Z,987.89
2023-01-19T02:33:15.680Z,987.86
2023-01-19T02:34:15.701Z,987.92
2023-01-19T02:35:15.625Z,987.87
2023-01-19T02:36:15.645Z,987.90
2023-01-19T02:37:15.636Z,987.93
2023-01-19T02:38:15.596Z,987.86
2023-01-19T02:39:15.618Z,987.81
2023-01-19T02:40:15.608Z,987.82
2023-01-19T02:41:15.592Z,987.84
2023-01-19T02:42:15.595Z,987.84
2023-01-19T02:43:15.578Z,987.85
2023-01-19T02:44:15.544Z,987.82
2023-01-19T02:45:15.542Z,987.79
2023-01-19T02:46:15.608Z,987.87
2023-01-19T02:47:15.558Z,987.85
2023-01-19T02:48:15.519Z,987.86
2023-01-19T02:49:15.502Z,987.80
2023-01-19T02:50:15.509Z,987.85
2023-01-19T02:51:15.497Z,987.86
2023-01-19T02:52:15.467Z,987.83
2023-01-19T02:53:15.471Z,987.87
2023-01-19T02:54:15.466Z,987.85
2023-01-19T02:55:15.459Z,987.80
2023-01-19T02:56:15.435Z,987.79
2023-01-19T02:57:15.429Z,987.76
2023-01-19T02:58:15.457Z,987.80
2023-01-19T02:59:15.631Z,987.74
2023-01-19T03:00:15.427Z,987.75
2023-01-19T03:01:15.572Z,987.67
2023-01-19T03:02:15.529Z,987.71
2023-01-19T03:03:15.436Z,987.74
2023-01-19T03:04:15.346Z,987.66
2023-01-19T03:05:15.340Z,987.69
2023-01-19T03:06:15.382Z,987.71
2023-01-19T03:07:15.348Z,987.67
2023-01-19T03:08:15.318Z,987.67
2023-01-19T03:09:15.289Z,987.65
2023-01-19T03:10:15.296Z,987.68
2023-01-19T03:11:15.330Z,987.68
2023-01-19T03:12:15.273Z,987.67
2023-01-19T03:13:15.257Z,987.69
2023-01-19T03:14:15.252Z,987.67
2023-01-19T03:15:15.236Z,987.69
2023-01-19T03:16:15.283Z,987.71
2023-01-19T03:17:15.215Z,987.66
2023-01-19T03:18:15.528Z,987.69
2023-01-19T03:19:15.210Z,987.69
2023-01-19T03:20:15.276Z,987.68
2023-01-19T03:21:15.176Z,987.69
2023-01-19T03:22:15.166Z,987.69
2023-01-19T03:23:15.230Z,987.65
2023-01-19T03:24:15.302Z,987.64
2023-01-19T03:25:27.530Z,987.65
2023-01-19T03:27:31.934Z,987.62
2023-01-19T03:28:32.922Z,987.62
2023-01-19T03:29:32.911Z,987.59
2023-01-19T03:30:32.907Z,987.60
2023-01-19T03:31:32.915Z,987.56
2023-01-19T03:32:32.879Z,987.56
2023-01-19T03:33:32.901Z,987.64
2023-01-19T03:34:32.915Z,987.62
2023-01-19T03:35:32.865Z,987.61
2023-01-19T03:36:32.898Z,987.61
2023-01-19T03:37:32.842Z,987.57
2023-01-19T03:38:32.818Z,987.56
2023-01-19T03:39:32.806Z,987.58
2023-01-19T03:40:32.811Z,987.58
2023-01-19T03:41:32.790Z,987.59
2023-01-19T03:42:32.819Z,987.55
2023-01-19T03:43:32.751Z,987.54
2023-01-19T03:44:32.767Z,987.59
2023-01-19T03:45:32.753Z,987.60
2023-01-19T03:46:32.738Z,987.62
2023-01-19T03:47:32.769Z,987.61
2023-01-19T03:48:32.767Z,987.61
2023-01-19T03:49:32.700Z,987.61
2023-01-19T03:50:32.704Z,987.58
2023-01-19T03:51:32.676Z,987.61
2023-01-19T03:52:32.699Z,987.63
2023-01-19T03:53:32.664Z,987.66
2023-01-19T03:54:32.683Z,987.62
2023-01-19T03:55:32.664Z,987.66
2023-01-19T03:56:32.664Z,987.64
2023-01-19T03:57:32.694Z,987.65
2023-01-19T03:58:32.638Z,987.62
2023-01-19T03:59:32.659Z,987.61
2023-01-19T04:00:32.643Z,987.66
2023-01-19T04:01:32.790Z,987.65
2023-01-19T04:02:32.756Z,987.68
2023-01-19T04:03:32.605Z,987.69
2023-01-19T04:04:32.605Z,987.68
2023-01-19T04:05:32.574Z,987.64
2023-01-19T04:06:32.545Z,987.68
2023-01-19T04:07:32.536Z,987.66
2023-01-19T04:08:32.550Z,987.70
2023-01-19T04:09:32.509Z,987.67
2023-01-19T04:10:32.513Z,987.65
2023-01-19T04:11:32.489Z,987.68
2023-01-19T04:12:32.471Z,987.64
2023-01-19T04:13:32.460Z,987.65
2023-01-19T04:14:33.350Z,987.67
2023-01-19T04:15:32.453Z,987.68
2023-01-19T04:16:32.430Z,987.66
2023-01-19T04:17:32.514Z,987.72
2023-01-19T04:18:33.921Z,987.67
2023-01-19T04:19:32.416Z,987.67
2023-01-19T04:20:32.487Z,987.70
2023-01-19T04:21:32.406Z,987.66
2023-01-19T04:22:32.435Z,987.67
2023-01-19T04:23:32.387Z,987.65
2023-01-19T04:24:32.359Z,987.68
2023-01-19T04:25:32.368Z,987.66
2023-01-19T04:26:32.346Z,987.63
2023-01-19T04:27:32.322Z,987.65
2023-01-19T04:28:32.325Z,987.65
2023-01-19T04:29:32.330Z,987.64
2023-01-19T04:30:32.305Z,987.66
2023-01-19T04:31:32.354Z,987.61
2023-01-19T04:32:32.279Z,987.67
2023-01-19T04:33:32.261Z,987.67
2023-01-19T04:34:32.273Z,987.66
2023-01-19T04:35:32.254Z,987.64
2023-01-19T04:36:32.234Z,987.67
2023-01-19T04:37:32.241Z,987.66
2023-01-19T04:38:32.230Z,987.67
2023-01-19T04:39:32.215Z,987.63
2023-01-19T04:40:32.222Z,987.70
2023-01-19T04:41:32.178Z,987.65
2023-01-19T04:42:32.301Z,987.68
2023-01-19T04:43:32.164Z,987.65
2023-01-19T04:44:32.191Z,987.67
2023-01-19T04:45:32.155Z,987.66
2023-01-19T04:46:32.261Z,987.67
2023-01-19T04:47:32.126Z,987.68
2023-01-19T04:48:32.144Z,987.66
2023-01-19T04:49:32.133Z,987.65
2023-01-19T04:50:32.115Z,987.65
2023-01-19T04:51:32.080Z,987.63
2023-01-19T04:52:32.079Z,987.65
2023-01-19T04:53:32.085Z,987.67
2023-01-19T04:54:32.093Z,987.64
2023-01-19T04:55:32.057Z,987.65
2023-01-19T04:56:32.044Z,987.65
2023-01-19T04:57:32.027Z,987.66
2023-01-19T04:58:32.016Z,987.71
2023-01-19T04:59:32.012Z,987.65
2023-01-19T05:00:32.006Z,987.65
2023-01-19T05:01:32.099Z,987.67
2023-01-19T05:02:32.011Z,987.68
2023-01-19T05:03:31.953Z,987.67
2023-01-19T05:04:31.969Z,987.66
2023-01-19T05:05:31.948Z,987.61
2023-01-19T05:06:31.954Z,987.65
2023-01-19T05:07:31.934Z,987.70
2023-01-19T05:08:31.917Z,987.64
2023-01-19T05:09:31.946Z,987.68
2023-01-19T05:10:31.911Z,987.66
2023-01-19T05:11:31.871Z,987.68
2023-01-19T05:12:31.878Z,987.69
2023-01-19T05:13:31.891Z,987.70
2023-01-19T05:14:31.871Z,987.71
2023-01-19T05:15:32.229Z,987.67
2023-01-19T05:16:31.847Z,987.70
2023-01-19T05:17:31.828Z,987.69
2023-01-19T05:18:31.855Z,987.66
2023-01-19T05:19:31.810Z,987.67
2023-01-19T05:20:31.803Z,987.72
2023-01-19T05:21:31.820Z,987.67
2023-01-19T05:22:31.790Z,987.67
2023-01-19T05:23:31.757Z,987.69
2023-01-19T05:24:31.778Z,987.72
2023-01-19T05:25:31.772Z,987.69
2023-01-19T05:26:31.746Z,987.74
2023-01-19T05:27:31.724Z,987.77
2023-01-19T05:28:31.716Z,987.79
2023-01-19T05:29:31.701Z,987.82
2023-01-19T05:30:31.720Z,987.82
2023-01-19T05:31:31.787Z,987.85
2023-01-19T05:32:31.683Z,987.86
2023-01-19T05:33:31.654Z,987.88
2023-01-19T05:34:31.701Z,987.85
2023-01-19T05:35:36.202Z,987.87
2023-01-19T05:36:32.050Z,987.86
2023-01-19T05:37:31.637Z,987.90
2023-01-19T05:38:35.799Z,987.91
2023-01-19T05:39:31.603Z,987.90
2023-01-19T05:40:31.610Z,987.86
2023-01-19T05:41:31.604Z,987.89
2023-01-19T05:42:32.874Z,987.89
2023-01-19T05:43:31.553Z,987.92
2023-01-19T05:44:31.553Z,987.95
2023-01-19T05:45:31.547Z,987.90
2023-01-19T05:46:31.616Z,987.90
2023-01-19T05:47:31.527Z,987.90
2023-01-19T05:48:31.537Z,987.89
2023-01-19T05:49:31.497Z,987.86
2023-01-19T05:50:31.505Z,987.85
2023-01-19T05:51:31.485Z,987.86
2023-01-19T05:52:31.501Z,987.82
2023-01-19T05:53:31.483Z,987.85
2023-01-19T05:54:31.463Z,987.90
2023-01-19T05:55:31.399Z,987.87
2023-01-19T05:56:31.408Z,987.88
2023-01-19T05:57:31.416Z,987.87
2023-01-19T05:58:31.462Z,987.93
2023-01-19T05:59:31.398Z,987.96
2023-01-19T06:00:31.431Z,987.95
2023-01-19T06:01:31.391Z,987.97
2023-01-19T06:02:31.443Z,987.97
2023-01-19T06:03:31.455Z,988.01
2023-01-19T06:04:31.391Z,988.02
2023-01-19T06:05:31.355Z,988.06
2023-01-19T06:06:31.346Z,988.08
2023-01-19T06:07:31.325Z,988.14
2023-01-19T06:08:31.356Z,988.18
2023-01-19T06:09:31.334Z,988.18
2023-01-19T06:10:31.350Z,988.16
2023-01-19T06:11:31.296Z,988.16
2023-01-19T06:12:31.291Z,988.16
2023-01-19T06:13:31.314Z,988.14
2023-01-19T06:14:31.279Z,988.12
2023-01-19T06:15:31.245Z,988.13
2023-01-19T06:16:31.334Z,988.13
2023-01-19T06:17:31.239Z,988.16
2023-01-19T06:18:31.239Z,988.14
2023-01-19T06:19:31.238Z,988.10
2023-01-19T06:20:31.202Z,988.13
2023-01-19T06:21:31.216Z,988.18
2023-01-19T06:22:31.190Z,988.12
2023-01-19T06:23:31.171Z,988.21
2023-01-19T06:24:31.193Z,988.20
2023-01-19T06:25:31.199Z,988.24
2023-01-19T06:26:31.153Z,988.25
2023-01-19T06:27:31.157Z,988.26
2023-01-19T06:28:31.124Z,988.28
2023-01-19T06:29:31.104Z,988.27
2023-01-19T06:30:31.107Z,988.28
2023-01-19T06:31:31.119Z,988.25
2023-01-19T06:32:31.084Z,988.26
2023-01-19T06:33:31.073Z,988.30
2023-01-19T06:34:31.063Z,988.37
2023-01-19T06:35:31.055Z,988.36
2023-01-19T06:36:31.029Z,988.37
2023-01-19T06:37:31.056Z,988.36
2023-01-19T06:38:31.024Z,988.39
2023-01-19T06:39:31.013Z,988.38
2023-01-19T06:40:31.049Z,988.37
2023-01-19T06:41:31.024Z,988.43
2023-01-19T06:42:30.994Z,988.41
2023-01-19T06:43:30.976Z,988.42
2023-01-19T06:44:30.981Z,988.40
2023-01-19T06:45:30.978Z,988.48
2023-01-19T06:46:30.950Z,988.47
2023-01-19T06:47:30.937Z,988.42
2023-01-19T06:48:30.916Z,988.46
2023-01-19T06:49:30.904Z,988.48
2023-01-19T06:50:30.937Z,988.51
2023-01-19T06:51:30.881Z,988.49
2023-01-19T06:52:30.892Z,988.48
2023-01-19T06:53:30.897Z,988.47
2023-01-19T06:54:30.856Z,988.51
2023-01-19T06:55:30.841Z,988.46
2023-01-19T06:56:30.864Z,988.57
2023-01-19T06:57:30.829Z,988.58
2023-01-19T06:58:30.821Z,988.61
2023-01-19T06:59:30.799Z,988.55
2023-01-19T07:00:30.815Z,988.55
2023-01-19T07:01:30.900Z,988.55
2023-01-19T07:02:31.055Z,988.58
2023-01-19T07:03:30.869Z,988.60
2023-01-19T07:04:30.758Z,988.63
2023-01-19T07:05:30.704Z,988.66
2023-01-19T07:06:30.773Z,988.63
2023-01-19T07:07:30.684Z,988.60
2023-01-19T07:08:30.663Z,988.64
2023-01-19T07:09:30.684Z,988.64
2023-01-19T07:11:26.361Z,988.63
2023-01-19T07:11:37.621Z,988.71
2023-01-19T07:12:30.642Z,988.81
2023-01-19T07:13:30.618Z,988.82
2023-01-19T07:14:30.645Z,988.81
2023-01-19T07:15:30.608Z,988.86
2023-01-19T07:16:30.613Z,988.88
2023-01-19T07:17:30.589Z,988.94
2023-01-19T07:18:30.556Z,988.94
2023-01-19T07:19:30.577Z,988.98
2023-01-19T07:20:30.533Z,988.97
2023-01-19T07:21:30.528Z,988.99
2023-01-19T07:22:30.533Z,988.98
2023-01-19T07:23:30.579Z,988.98
2023-01-19T07:24:30.489Z,988.96
2023-01-19T07:25:30.509Z,988.98
2023-01-19T07:26:30.477Z,988.98
2023-01-19T07:27:30.508Z,988.98
2023-01-19T07:28:30.472Z,989.00
2023-01-19T07:29:30.470Z,988.95
2023-01-19T07:30:30.474Z,989.07
2023-01-19T07:31:30.604Z,989.11
2023-01-19T07:32:30.424Z,989.13
2023-01-19T07:33:30.439Z,989.16
2023-01-19T07:34:30.397Z,989.20
2023-01-19T07:35:30.426Z,989.16
2023-01-19T07:36:30.371Z,989.24
2023-01-19T07:37:30.394Z,989.28
2023-01-19T07:38:30.352Z,989.32
2023-01-19T07:39:30.350Z,989.34
2023-01-19T07:40:30.343Z,989.34
2023-01-19T07:41:30.353Z,989.40
2023-01-19T07:42:30.331Z,989.42
2023-01-19T07:43:30.322Z,989.40
2023-01-19T07:44:30.309Z,989.39
2023-01-19T07:45:30.315Z,989.44
2023-01-19T07:46:30.279Z,989.46
2023-01-19T07:47:30.270Z,989.48
2023-01-19T07:48:30.258Z,989.51
2023-01-19T07:49:30.255Z,989.50
2023-01-19T07:50:30.236Z,989.50
2023-01-19T07:51:30.266Z,989.52
2023-01-19T07:52:30.209Z,989.53
2023-01-19T07:53:30.224Z,989.57
2023-01-19T07:54:30.210Z,989.56
2023-01-19T07:55:30.218Z,989.51
2023-01-19T07:56:31.665Z,989.54
2023-01-19T07:57:30.182Z,989.62
2023-01-19T07:58:30.180Z,989.62
2023-01-19T07:59:30.216Z,989.62
2023-01-19T08:00:30.135Z,989.65
2023-01-19T08:01:30.305Z,989.63
2023-01-19T08:02:30.141Z,989.68
2023-01-19T08:03:30.129Z,989.70
2023-01-19T08:04:30.163Z,989.74
2023-01-19T08:05:30.111Z,989.80
2023-01-19T08:06:30.097Z,989.84
2023-01-19T08:07:30.126Z,989.84
2023-01-19T08:08:30.049Z,989.92
2023-01-19T08:09:30.056Z,989.96
2023-01-19T08:10:30.052Z,989.97
2023-01-19T08:11:30.064Z,990.03
2023-01-19T08:12:30.027Z,990.05
2023-01-19T08:13:30.038Z,990.07
2023-01-19T08:14:30.028Z,990.09
2023-01-19T08:15:30.104Z,990.08
2023-01-19T08:16:30.111Z,990.05
2023-01-19T08:17:29.980Z,990.06
2023-01-19T08:18:29.950Z,990.11
2023-01-19T08:19:29.954Z,990.12
2023-01-19T08:20:30.001Z,990.13
2023-01-19T08:21:29.931Z,990.12
2023-01-19T08:22:29.926Z,990.12
2023-01-19T08:23:29.911Z,990.11
2023-01-19T08:24:29.907Z,990.15
2023-01-19T08:25:29.905Z,990.16
2023-01-19T08:26:29.908Z,990.22
2023-01-19T08:27:29.903Z,990.26
2023-01-19T08:28:29.907Z,990.25
2023-01-19T08:29:29.848Z,990.26
2023-01-19T08:30:29.850Z,990.28
2023-01-19T08:31:29.999Z,990.27
2023-01-19T08:32:29.850Z,990.29
2023-01-19T08:33:29.814Z,990.30
2023-01-19T08:34:29.796Z,990.29
2023-01-19T08:35:29.791Z,990.33
2023-01-19T08:36:29.781Z,990.32
2023-01-19T08:37:29.800Z,990.36
2023-01-19T08:38:29.758Z,990.41
2023-01-19T08:39:29.753Z,990.41
2023-01-19T08:40:29.745Z,990.42
2023-01-19T08:41:29.748Z,990.43
2023-01-19T08:42:29.740Z,990.45
2023-01-19T08:43:29.738Z,990.49
2023-01-19T08:44:29.695Z,990.50
2023-01-19T08:45:29.684Z,990.49
2023-01-19T08:46:29.744Z,990.51
2023-01-19T08:47:29.746Z,990.52
2023-01-19T08:48:29.662Z,990.53
2023-01-19T08:49:29.657Z,990.50
2023-01-19T08:50:29.649Z,990.54
2023-01-19T08:51:29.626Z,990.57
2023-01-19T08:52:30.417Z,990.53
2023-01-19T08:53:39.764Z,990.58
2023-01-19T08:54:29.598Z,990.62
2023-01-19T08:55:29.628Z,990.64
2023-01-19T08:56:29.575Z,990.67
2023-01-19T08:57:29.576Z,990.65
2023-01-19T08:58:29.587Z,990.69
2023-01-19T08:59:29.545Z,990.65
2023-01-19T09:00:29.536Z,990.69
2023-01-19T09:01:29.669Z,990.72
2023-01-19T09:02:29.665Z,990.72
2023-01-19T09:03:29.552Z,990.75
2023-01-19T09:04:29.512Z,990.77
2023-01-19T09:05:29.496Z,990.76
2023-01-19T09:06:29.469Z,990.78
2023-01-19T09:07:31.457Z,990.81
2023-01-19T09:08:29.552Z,990.82
2023-01-19T09:09:29.447Z,990.82
2023-01-19T09:10:29.447Z,990.85
2023-01-19T09:11:29.451Z,990.85
2023-01-19T09:12:29.452Z,990.86
2023-01-19T09:13:29.422Z,990.86
2023-01-19T09:14:29.403Z,990.90
2023-01-19T09:15:29.392Z,990.96
2023-01-19T09:16:29.393Z,990.98
2023-01-19T09:17:29.373Z,991.00
2023-01-19T09:18:29.381Z,991.04
2023-01-19T09:19:29.355Z,991.07
2023-01-19T09:20:29.351Z,991.07
2023-01-19T09:21:29.339Z,991.06
2023-01-19T09:22:29.324Z,991.08
2023-01-19T09:23:29.353Z,991.08
2023-01-19T09:24:29.380Z,991.09
2023-01-19T09:25:29.290Z,991.10
2023-01-19T09:26:30.245Z,991.14
2023-01-19T09:27:29.279Z,991.14
2023-01-19T09:28:29.377Z,991.16
2023-01-19T09:29:29.257Z,991.18
2023-01-19T09:30:29.270Z,991.17
2023-01-19T09:31:29.345Z,991.20
2023-01-19T09:32:29.200Z,991.20
2023-01-19T09:33:29.207Z,991.23
2023-01-19T09:34:29.227Z,991.27
2023-01-19T09:35:29.180Z,991.28
2023-01-19T09:36:29.194Z,991.27
2023-01-19T09:37:29.184Z,991.25
2023-01-19T09:38:29.140Z,991.28
2023-01-19T09:39:29.201Z,991.27
2023-01-19T09:40:29.130Z,991.31
2023-01-19T09:41:29.156Z,991.31
2023-01-19T09:42:29.143Z,991.36
2023-01-19T09:43:29.117Z,991.37
2023-01-19T09:44:29.115Z,991.39
2023-01-19T09:45:29.111Z,991.39
2023-01-19T09:46:29.081Z,991.40
2023-01-19T09:47:29.076Z,991.40
2023-01-19T09:48:29.054Z,991.42
2023-01-19T09:49:29.068Z,991.44
2023-01-19T09:50:29.030Z,991.43
2023-01-19T09:51:29.022Z,991.42
2023-01-19T09:52:29.008Z,991.42
2023-01-19T09:53:29.005Z,991.43
2023-01-19T09:54:28.991Z,991.43
2023-01-19T09:55:29.001Z,991.46
2023-01-19T09:56:28.969Z,991.51
2023-01-19T09:57:28.976Z,991.52
2023-01-19T09:58:28.965Z,991.53
2023-01-19T09:59:28.968Z,991.54
2023-01-19T10:00:29.079Z,991.56
2023-01-19T10:01:29.053Z,991.59
2023-01-19T10:02:28.904Z,991.61
2023-01-19T10:03:29.032Z,991.63
2023-01-19T10:04:28.913Z,991.65
2023-01-19T10:05:28.909Z,991.66
2023-01-19T10:06:28.863Z,991.68
2023-01-19T10:07:28.872Z,991.68
2023-01-19T10:08:28.857Z,991.72
2023-01-19T10:09:28.881Z,991.72
2023-01-19T10:10:28.860Z,991.70
2023-01-19T10:11:34.518Z,991.73
2023-01-19T10:12:28.827Z,991.74
2023-01-19T10:13:28.934Z,991.75
2023-01-19T10:14:28.777Z,991.75
2023-01-19T10:15:28.811Z,991.78
2023-01-19T10:16:28.834Z,991.76
2023-01-19T10:17:28.760Z,991.74
2023-01-19T10:18:28.748Z,991.76
2023-01-19T10:19:28.742Z,991.78
2023-01-19T10:20:28.766Z,991.81
2023-01-19T10:21:28.768Z,991.78
2023-01-19T10:22:28.764Z,991.80
2023-01-19T10:23:28.727Z,991.84
2023-01-19T10:24:28.725Z,991.83
2023-01-19T10:25:28.732Z,991.82
2023-01-19T10:26:28.683Z,991.85
2023-01-19T10:27:28.685Z,991.87
2023-01-19T10:28:28.676Z,991.90
2023-01-19T10:29:28.639Z,991.89
2023-01-19T10:30:28.629Z,991.88
2023-01-19T10:31:29.456Z,991.84
2023-01-19T10:32:28.659Z,991.87
2023-01-19T10:33:28.604Z,991.83
2023-01-19T10:34:28.629Z,991.91
2023-01-19T10:35:28.649Z,991.92
2023-01-19T10:36:28.595Z,991.94
2023-01-19T10:37:28.586Z,991.94
2023-01-19T10:38:28.578Z,991.94
2023-01-19T10:39:28.555Z,991.94
2023-01-19T10:40:28.613Z,991.91
2023-01-19T10:41:28.553Z,991.97
2023-01-19T10:42:28.536Z,992.00
2023-01-19T10:43:28.566Z,991.99
2023-01-19T10:44:28.589Z,991.99
2023-01-19T10:45:29.375Z,991.96
2023-01-19T10:46:28.517Z,991.96
2023-01-19T10:47:29.930Z,991.97
2023-01-19T10:48:28.462Z,991.98
2023-01-19T10:49:28.436Z,992.00
2023-01-19T10:50:28.438Z,991.98
2023-01-19T10:51:28.467Z,992.01
2023-01-19T10:52:28.404Z,992.04
2023-01-19T10:53:28.403Z,992.04
2023-01-19T10:54:28.387Z,992.01
2023-01-19T10:55:28.380Z,991.99
2023-01-19T10:56:28.439Z,991.99
2023-01-19T10:57:28.386Z,991.99
2023-01-19T10:58:28.426Z,991.97
2023-01-19T10:59:28.377Z,991.98
2023-01-19T11:00:28.323Z,991.96
2023-01-19T11:01:28.519Z,991.96
2023-01-19T11:02:28.532Z,991.99
2023-01-19T11:03:28.362Z,991.99
2023-01-19T11:04:28.324Z,992.00
2023-01-19T11:05:28.292Z,992.03
2023-01-19T11:06:28.287Z,992.03
2023-01-19T11:07:28.271Z,992.05
2023-01-19T11:08:28.240Z,992.05
2023-01-19T11:09:28.225Z,992.06
2023-01-19T11:10:28.216Z,992.03
2023-01-19T11:11:28.288Z,992.07
2023-01-19T11:12:28.195Z,992.10
2023-01-19T11:13:28.201Z,992.15
2023-01-19T11:14:28.200Z,992.16
2023-01-19T11:15:28.192Z,992.16
2023-01-19T11:16:28.176Z,992.14
2023-01-19T11:17:28.153Z,992.14
2023-01-19T11:18:28.176Z,992.15
2023-01-19T11:19:28.178Z,992.17
2023-01-19T11:20:28.122Z,992.19
2023-01-19T11:21:28.128Z,992.19
2023-01-19T11:22:28.116Z,992.18
2023-01-19T11:23:28.127Z,992.20
2023-01-19T11:24:28.097Z,992.19
2023-01-19T11:25:28.099Z,992.19
2023-01-19T11:26:28.093Z,992.22
2023-01-19T11:27:28.047Z,992.19
2023-01-19T11:28:28.117Z,992.22
2023-01-19T11:29:28.025Z,992.19
2023-01-19T11:30:28.020Z,992.16
2023-01-19T11:31:28.194Z,992.19
2023-01-19T11:32:28.008Z,992.17
2023-01-19T11:33:28.010Z,992.16
2023-01-19T11:34:27.978Z,992.15
2023-01-19T11:35:27.965Z,992.17
2023-01-19T11:36:27.975Z,992.16
2023-01-19T11:37:27.964Z,992.19
2023-01-19T11:38:27.978Z,992.19
2023-01-19T11:39:27.978Z,992.20
2023-01-19T11:40:27.918Z,992.19
2023-01-19T11:41:27.964Z,992.18
2023-01-19T11:42:27.912Z,992.21
2023-01-19T11:43:36.604Z,992.20
2023-01-19T11:44:27.899Z,992.21
2023-01-19T11:45:27.928Z,992.20
2023-01-19T11:46:27.907Z,992.20
2023-01-19T11:47:27.857Z,992.19
2023-01-19T11:48:27.840Z,992.16
2023-01-19T11:49:27.861Z,992.16
2023-01-19T11:50:27.862Z,992.16
2023-01-19T11:51:27.816Z,992.15
2023-01-19T11:52:27.800Z,992.17
2023-01-19T11:53:28.326Z,992.18
2023-01-19T11:54:27.778Z,992.20
2023-01-19T11:55:27.808Z,992.18
2023-01-19T11:56:27.779Z,992.21
2023-01-19T11:57:27.795Z,992.21
2023-01-19T11:58:27.749Z,992.19
2023-01-19T11:59:27.819Z,992.19
2023-01-19T12:00:27.716Z,992.19
2023-01-19T12:01:27.792Z,992.20
2023-01-19T12:02:27.838Z,992.18
2023-01-19T12:03:27.750Z,992.19
2023-01-19T12:04:27.685Z,992.21
2023-01-19T12:05:28.430Z,992.16
2023-01-19T12:06:27.705Z,992.20
2023-01-19T12:07:27.654Z,992.20
2023-01-19T12:08:27.635Z,992.21
2023-01-19T12:09:27.620Z,992.21
2023-01-19T12:10:27.663Z,992.20
2023-01-19T12:11:27.593Z,992.20
2023-01-19T12:12:27.633Z,992.21
2023-01-19T12:13:27.586Z,992.23
2023-01-19T12:14:27.578Z,992.20
2023-01-19T12:15:27.569Z,992.21
2023-01-19T12:16:27.602Z,992.19
2023-01-19T12:17:27.549Z,992.21
2023-01-19T12:18:27.548Z,992.21
2023-01-19T12:19:27.552Z,992.24
2023-01-19T12:20:27.510Z,992.22
2023-01-19T12:21:27.835Z,992.23
2023-01-19T12:22:27.489Z,992.20
2023-01-19T12:23:27.513Z,992.21
2023-01-19T12:24:27.568Z,992.22
2023-01-19T12:25:27.476Z,992.23
2023-01-19T12:26:27.782Z,992.25
2023-01-19T12:27:27.485Z,992.26
2023-01-19T12:28:27.460Z,992.24
2023-01-19T12:29:27.405Z,992.23